NCAR-RAP Real-Time Weather Data

Output produced by METARs form (10 April 2020  07:28 UTC)
found at http://weather.rap.ucar.edu/surface/
 
KMAE 100653Z AUTO 00000KT 10SM CLR 12/09 A3007 RMK AO2 SLP182 T01170089
KMAE 100553Z AUTO 00000KT 10SM CLR 12/09 A3007 RMK AO2 SLP182 T01170089 10161 20111 51009
KMAE 100453Z AUTO 13004KT 10SM CLR 12/08 A3007 RMK AO2 SLP182 T01220083
KMAE 100353Z AUTO 15004KT 10SM CLR 12/09 A3005 RMK AO2 SLP177 T01170089
KMAE 100253Z AUTO 16003KT 10SM CLR 13/08 A3005 RMK AO2 SLP174 T01280083 51006
KMAE 100153Z AUTO 16007KT 10SM CLR 14/08 A3004 RMK AO2 SLP173 T01440078
KMAE 100053Z AUTO 16010KT 10SM CLR 16/08 A3003 RMK AO2 SLP169 T01610083
KMAE 092353Z AUTO 13006KT 10SM FEW050 16/09 A3003 RMK AO2 SLP167 T01610089 10161 20133 58013
KMAE 092253Z AUTO 13010KT 10SM OVC055 16/09 A3005 RMK AO2 SLP173 T01610094
KMAE 092153Z AUTO 16010KT 10SM SCT026 OVC048 15/09 A3005 RMK AO2 SLP176 T01500094
KMAE 092053Z AUTO 16012KT 10SM FEW024 BKN039 OVC050 15/09 A3007 RMK AO2 SLP180 T01500089 58006
KMAE 091953Z AUTO 15013KT 10SM FEW024 BKN033 14/09 A3007 RMK AO2 SLP183 T01390089
KMAE 091937Z AUTO 15014KT 10SM SCT023 BKN036 14/09 A3008 RMK AO2 T01440089
KMAE 091853Z AUTO 16016KT 10SM BKN019 BKN028 BKN036 13/09 A3008 RMK AO2 SLP185 T01330094
KMAE 091839Z AUTO 15013KT 10SM SCT019 SCT026 BKN032 14/10 A3008 RMK AO2 T01390100
KMAE 091832Z AUTO 15014KT 10SM SCT019 BKN028 OVC060 14/11 A3008 RMK AO2 T01440106
KMAE 091812Z AUTO 16013KT 10SM SCT019 BKN048 14/09 A3008 RMK AO2 T01390094
KMAE 091753Z AUTO 14015KT 10SM BKN017 BKN075 13/10 A3009 RMK AO2 SLP187 60004 T01330100 10133 20094 50005
KMAE 091707Z AUTO 14015G19KT 10SM SCT024 OVC047 12/10 A3009 RMK AO2 T01220100
KMAE 091653Z AUTO 13011KT 10SM BKN020 BKN026 OVC043 12/09 A3009 RMK AO2 SLP188 T01170094
KMAE 091626Z AUTO 13013G20KT 10SM OVC016 10/08 A3008 RMK AO2 T01000083
KMAE 091553Z AUTO 12011KT 10SM OVC014 10/09 A3007 RMK AO2 RAE22 SLP183 P0001 T01000089
KMAE 091539Z AUTO 12012KT 10SM FEW009 OVC014 10/09 A3007 RMK AO2 RAE22 P0001 T01000089
KMAE 091526Z AUTO 11009KT 5SM BR FEW007 OVC015 10/09 A3008 RMK AO2 RAE22 P0001 T01000089
KMAE 091512Z AUTO 12012KT 2SM -RA BR FEW007 OVC015 10/09 A3007 RMK AO2 P0001 T01000089
KMAE 091510Z AUTO 12010KT 1 3/4SM -RA BR FEW007 OVC013 10/09 A3007 RMK AO2 P0001 T01000089
KMAE 091502Z AUTO 12010KT 2SM -RA BR FEW007 OVC013 10/09 A3007 RMK AO2 P0000 T01000089
KMAE 091453Z AUTO 12009KT 1 1/2SM -RA BR BKN011 OVC018 09/09 A3007 RMK AO2 RAB14 CIG 007V013 SLP182 P0001 60003 T00940089 53007
KMAE 091448Z AUTO 12010KT 1 1/2SM -RA BR BKN009 OVC017 09/09 A3007 RMK AO2 RAB14 CIG 008V012 P0001
KMAE 091430Z AUTO 12009KT 1 3/4SM -RA BR BKN011 OVC017 09/08 A3007 RMK AO2 RAB14 P0000 T00940083
KMAE 091353Z AUTO 12012G19KT 10SM OVC014 10/08 A3005 RMK AO2 RAB09E33 SLP175 P0000 T01000083
KMAE 091349Z AUTO 11012G19KT 10SM OVC014 10/08 A3005 RMK AO2 RAB09E33 P0000
KMAE 091337Z AUTO 11012KT 10SM OVC015 09/08 A3004 RMK AO2 RAB09E33 P0000 T00940083
KMAE 091327Z AUTO 11011KT 10SM -RA FEW009 OVC014 09/08 A3004 RMK AO2 RAB09 P0000 T00940083
KMAE 091316Z AUTO 11013G18KT 10SM -RA SCT009 OVC016 10/08 A3004 RMK AO2 RAB09 P0000 T01000083
KMAE 091253Z AUTO 11011KT 10SM BKN009 OVC016 10/09 A3004 RMK AO2 RAE50 CIG 006V010 SLP170 P0002 T01000089
KMAE 091230Z AUTO 11012KT 8SM -RA BKN009 OVC016 10/09 A3003 RMK AO2 P0002 T01000089
KMAE 091153Z AUTO 11010KT 9SM -RA OVC010 10/09 A3002 RMK AO2 SLP164 P0003 60013 70013 T01000089 10111 20100 53001
KMAE 091053Z AUTO 10009KT 6SM -RA BR OVC008 10/09 A3001 RMK AO2 CIG 005V010 SLP162 P0003 T01000089
KMAE 091048Z AUTO 10008KT 7SM -RA OVC008 10/09 A3001 RMK AO2 CIG 005V010 P0002
KMAE 091039Z AUTO 10009KT 7SM -RA BKN006 OVC013 10/09 A3001 RMK AO2 P0002 T01000094